Time;durP1;ratioP1;P1;durP2;ratioP2;P2;SDS_P1;SDS_P2;PMS_P1;PMS_P2;Temp;Humidity;BMP_temperature;BMP_pressure;BME280_temperature;BME280_humidity;BME280_pressure;Samples;Min_cycle;Max_cycle;Signal;HPM_P1;HPM_P2
2021/06/03 00:00:10;;;;;;;7.43;4.63;;;;;;;16.06;53.58;101503.69;4964960;28;20622;-76
2021/06/03 00:02:37;;;;;;;8.15;5.43;;;;;;;16.03;53.54;101508.34;5004185;28;20049;-77
2021/06/03 00:05:06;;;;;;;7.68;4.25;;;;;;;15.98;53.56;101513.97;4987809;28;20132;-76
2021/06/03 00:07:34;;;;;;;7.80;5.05;;;;;;;15.95;53.94;101515.06;4955166;28;20049;-76
2021/06/03 00:10:04;;;;;;;6.90;4.55;;;;;;;15.90;53.93;101511.03;4991742;28;20571;-77
2021/06/03 00:12:33;;;;;;;8.10;4.68;;;;;;;15.79;54.25;101517.03;4969498;28;20124;-75
2021/06/03 00:15:00;;;;;;;9.10;4.30;;;;;;;15.74;54.38;101505.88;4991053;28;20058;-74
2021/06/03 00:17:28;;;;;;;7.68;4.43;;;;;;;15.68;54.47;101520.41;4970188;28;20138;-74
2021/06/03 00:19:55;;;;;;;8.30;4.43;;;;;;;15.66;54.66;101514.34;4993640;28;20068;-76
2021/06/03 00:22:22;;;;;;;7.05;5.00;;;;;;;15.68;54.49;101507.13;4989733;28;20050;-75
2021/06/03 00:24:49;;;;;;;7.57;4.68;;;;;;;15.57;54.92;101511.41;4991130;28;20077;-75
2021/06/03 00:27:16;;;;;;;7.40;4.53;;;;;;;15.40;55.55;101510.72;4977218;28;20054;-74
2021/06/03 00:29:44;;;;;;;10.70;5.13;;;;;;;15.47;55.33;101507.66;4985688;28;20070;-75
2021/06/03 00:32:11;;;;;;;7.85;5.00;;;;;;;15.36;55.65;101509.22;4996553;28;20053;-76
2021/06/03 00:34:39;;;;;;;8.10;5.13;;;;;;;15.27;55.98;101509.81;4994345;28;20124;-76
2021/06/03 00:37:06;;;;;;;8.48;5.03;;;;;;;15.33;55.62;101509.41;4989039;28;20058;-74
2021/06/03 00:39:34;;;;;;;5.80;5.15;;;;;;;15.34;55.44;101516.41;4974313;28;20045;-74
2021/06/03 00:42:01;;;;;;;6.55;4.75;;;;;;;15.29;55.93;101512.34;4992359;28;20520;-73
2021/06/03 00:44:28;;;;;;;7.05;5.30;;;;;;;15.34;55.52;101512.91;4987714;28;20612;-74
2021/06/03 00:46:55;;;;;;;8.43;5.07;;;;;;;15.10;56.27;101513.53;4987472;28;20046;-74
2021/06/03 00:49:23;;;;;;;8.98;4.88;;;;;;;15.07;56.38;101516.38;4958551;28;20049;-75
2021/06/03 00:51:50;;;;;;;5.50;4.45;;;;;;;14.97;56.55;101502.00;4992796;28;20106;-75
2021/06/03 00:54:17;;;;;;;7.97;5.22;;;;;;;15.07;55.91;101504.91;4983067;28;20053;-73
2021/06/03 00:56:44;;;;;;;9.52;4.75;;;;;;;15.01;56.12;101506.16;4966985;28;20126;-76
2021/06/03 00:59:11;;;;;;;7.53;4.78;;;;;;;15.02;55.99;101507.88;4978485;28;20592;-77
2021/06/03 01:01:39;;;;;;;9.75;4.75;;;;;;;14.95;56.89;101506.56;4992970;28;20587;-74
2021/06/03 01:04:07;;;;;;;5.93;5.03;;;;;;;14.94;56.46;101504.84;4984922;28;20118;-74
2021/06/03 01:06:34;;;;;;;7.28;5.07;;;;;;;14.82;56.92;101505.63;4992433;28;20133;-74
2021/06/03 01:09:07;;;;;;;5.38;4.70;;;;;;;14.84;56.34;101507.22;4989089;28;20054;-73
2021/06/03 01:11:49;;;;;;;9.80;5.03;;;;;;;14.91;56.40;101511.22;4996749;28;20061;-76
2021/06/03 01:14:22;;;;;;;12.65;4.95;;;;;;;14.79;56.42;101504.03;4976568;28;20045;-76
2021/06/03 01:16:50;;;;;;;10.38;6.07;;;;;;;14.86;56.13;101501.81;4976694;28;20069;-76
2021/06/03 01:19:24;;;;;;;8.77;5.32;;;;;;;14.86;56.26;101504.47;4989746;28;20077;-75
2021/06/03 01:21:56;;;;;;;7.45;5.03;;;;;;;14.81;56.17;101504.75;4956135;28;20042;-75
2021/06/03 01:24:46;;;;;;;9.13;5.10;;;;;;;14.88;55.97;101505.25;4970985;28;20046;-76
2021/06/03 01:27:20;;;;;;;6.65;4.90;;;;;;;14.76;56.53;101511.31;4984687;28;20109;-76
2021/06/03 01:29:52;;;;;;;6.40;4.78;;;;;;;14.62;57.19;101517.47;4983188;28;20562;-75
2021/06/03 01:32:20;;;;;;;8.95;4.85;;;;;;;14.57;57.08;101515.09;4992477;28;20046;-76
2021/06/03 01:34:48;;;;;;;7.40;4.75;;;;;;;14.68;56.76;101522.41;4988326;28;20199;-78
2021/06/03 01:37:16;;;;;;;10.93;5.35;;;;;;;14.64;56.23;101521.72;4999663;28;20053;-76
2021/06/03 01:39:44;;;;;;;9.15;5.38;;;;;;;14.60;57.10;101522.88;4971641;28;20061;-74
2021/06/03 01:42:14;;;;;;;13.35;4.93;;;;;;;14.57;56.77;101525.69;4971784;28;20156;-75
2021/06/03 01:44:41;;;;;;;9.25;4.95;;;;;;;14.48;57.40;101523.59;4972135;28;20482;-74
2021/06/03 01:47:09;;;;;;;12.65;5.18;;;;;;;14.44;57.37;101522.06;4965578;28;20064;-74
2021/06/03 01:49:37;;;;;;;5.75;4.45;;;;;;;14.48;57.37;101523.59;4990054;28;20049;-74
2021/06/03 01:52:05;;;;;;;6.97;5.30;;;;;;;14.35;57.48;101523.47;4971128;28;20046;-75
2021/06/03 01:54:33;;;;;;;7.28;5.57;;;;;;;14.38;57.35;101530.38;4988081;28;20049;-75
2021/06/03 01:57:00;;;;;;;7.05;5.22;;;;;;;14.25;57.99;101532.91;4957248;28;20138;-75
2021/06/03 01:59:28;;;;;;;7.43;5.00;;;;;;;14.21;58.05;101534.03;4986607;28;20144;-75
2021/06/03 02:01:55;;;;;;;8.10;5.88;;;;;;;14.07;58.09;101534.84;4973239;28;20046;-76
2021/06/03 02:04:22;;;;;;;9.13;5.38;;;;;;;14.06;58.63;101538.44;4977542;28;20507;-76
2021/06/03 02:06:49;;;;;;;7.63;5.53;;;;;;;14.04;58.69;101537.69;4942064;28;20050;-76
2021/06/03 02:09:16;;;;;;;8.23;5.55;;;;;;;13.95;58.75;101543.50;4984042;28;20133;-77
2021/06/03 02:11:46;;;;;;;11.85;5.65;;;;;;;14.06;58.01;101541.09;4953545;28;20511;-75
2021/06/03 02:14:17;;;;;;;10.57;5.50;;;;;;;13.90;59.82;101540.28;4973208;28;20057;-74
2021/06/03 02:16:48;;;;;;;12.68;5.32;;;;;;;13.90;58.66;101541.13;4987908;28;20058;-77
2021/06/03 02:19:25;;;;;;;9.27;5.63;;;;;;;13.78;59.20;101539.22;4966766;28;20145;-74
2021/06/03 02:21:53;;;;;;;10.23;4.88;;;;;;;13.83;58.76;101542.44;4970426;28;20140;-74
2021/06/03 02:24:21;;;;;;;9.65;5.40;;;;;;;13.79;59.12;101538.28;4967561;28;20077;-75
2021/06/03 02:26:48;;;;;;;11.10;5.60;;;;;;;13.75;59.56;101547.31;4981709;28;20052;-78
2021/06/03 02:29:16;;;;;;;9.55;4.97;;;;;;;13.75;59.07;101547.31;4986430;28;20070;-74
2021/06/03 02:31:44;;;;;;;16.80;6.00;;;;;;;13.83;58.75;101541.59;4980879;28;20129;-72
2021/06/03 02:34:11;;;;;;;6.63;4.88;;;;;;;13.62;59.45;101543.69;4978522;28;20100;-73
2021/06/03 02:36:39;;;;;;;12.70;5.65;;;;;;;13.78;59.18;101543.63;4958972;28;20149;-74
2021/06/03 02:39:07;;;;;;;9.32;4.95;;;;;;;13.85;58.76;101545.00;4969673;28;20042;-76
2021/06/03 02:41:35;;;;;;;8.68;5.28;;;;;;;13.85;58.78;101540.56;4988825;28;20066;-73
2021/06/03 02:44:02;;;;;;;8.48;5.90;;;;;;;13.67;59.64;101550.41;4970428;28;20054;-74
2021/06/03 02:46:29;;;;;;;7.30;5.32;;;;;;;13.74;59.19;101550.06;4966901;28;20549;-72
2021/06/03 02:48:57;;;;;;;8.25;5.53;;;;;;;13.79;58.93;101553.31;4974129;28;20061;-74
2021/06/03 02:51:24;;;;;;;11.02;5.72;;;;;;;13.82;58.92;101546.00;4987278;28;20085;-75
2021/06/03 02:53:51;;;;;;;8.43;5.53;;;;;;;13.83;58.97;101553.03;4989019;28;20146;-75
2021/06/03 02:56:19;;;;;;;12.65;6.05;;;;;;;13.86;58.91;101555.47;5007484;28;20149;-74
2021/06/03 02:58:46;;;;;;;6.57;5.05;;;;;;;13.78;58.90;101559.50;5026345;28;20628;-75
2021/06/03 03:01:14;;;;;;;7.50;4.97;;;;;;;13.81;58.62;101556.69;4971861;28;20144;-74
2021/06/03 03:03:41;;;;;;;7.85;5.07;;;;;;;13.75;59.49;101552.63;4993313;28;20116;-74
2021/06/03 03:06:08;;;;;;;10.68;5.28;;;;;;;13.79;59.04;101556.78;4998070;28;20128;-74
2021/06/03 03:08:35;;;;;;;10.35;5.53;;;;;;;13.90;58.30;101562.31;4984637;28;20107;-75
2021/06/03 03:11:03;;;;;;;10.98;5.57;;;;;;;13.96;58.53;101552.31;5013031;28;20489;-74
2021/06/03 03:13:30;;;;;;;9.27;5.57;;;;;;;13.81;58.94;101562.84;5018151;28;20221;-75
2021/06/03 03:15:58;;;;;;;10.15;5.20;;;;;;;13.74;59.38;101563.31;5024858;28;20065;-74
2021/06/03 03:18:25;;;;;;;12.10;5.60;;;;;;;13.82;58.73;101564.53;5003467;28;20045;-74
2021/06/03 03:20:53;;;;;;;8.60;5.40;;;;;;;13.81;58.78;101564.63;4978865;28;20049;-75
2021/06/03 03:23:20;;;;;;;9.30;5.45;;;;;;;13.93;58.53;101562.13;4998747;28;20061;-74
2021/06/03 03:25:48;;;;;;;7.25;5.40;;;;;;;13.98;58.21;101561.88;5001179;28;20045;-74
2021/06/03 03:28:15;;;;;;;8.70;5.60;;;;;;;13.93;58.57;101564.78;4996308;28;20231;-75
2021/06/03 03:30:43;;;;;;;9.00;5.30;;;;;;;13.94;58.46;101560.34;4992208;28;20069;-74
2021/06/03 03:33:15;;;;;;;8.20;5.00;;;;;;;13.94;58.58;101563.00;4971495;28;20049;-75
2021/06/03 03:35:45;;;;;;;10.45;5.65;;;;;;;13.98;58.51;101566.31;4971085;28;20150;-77
2021/06/03 03:38:14;;;;;;;10.75;6.03;;;;;;;14.02;58.31;101563.41;4975516;28;20054;-74
2021/06/03 03:40:42;;;;;;;7.47;5.60;;;;;;;14.03;58.10;101559.81;5007758;28;20050;-75
2021/06/03 03:43:10;;;;;;;12.40;5.85;;;;;;;14.11;57.79;101562.00;4978610;28;20042;-76
2021/06/03 03:45:37;;;;;;;10.65;6.05;;;;;;;14.18;57.41;101560.69;4984906;28;20050;-75
2021/06/03 03:48:05;;;;;;;10.45;5.22;;;;;;;14.17;57.68;101573.09;4984588;28;20046;-76
2021/06/03 03:50:34;;;;;;;9.18;5.15;;;;;;;14.27;57.53;101565.44;4989298;28;20100;-76
2021/06/03 03:53:02;;;;;;;11.43;5.68;;;;;;;14.31;56.96;101563.47;4986091;28;20133;-74
2021/06/03 03:55:29;;;;;;;11.60;6.15;;;;;;;14.30;57.13;101565.28;4970875;28;20058;-74
2021/06/03 03:57:58;;;;;;;11.52;5.22;;;;;;;14.37;56.86;101557.81;4973843;28;20038;-73
2021/06/03 04:00:28;;;;;;;10.40;5.93;;;;;;;14.36;57.33;101561.41;4982118;28;20109;-75
2021/06/03 04:02:56;;;;;;;9.23;5.53;;;;;;;14.44;56.78;101565.28;4968211;28;20496;-73
2021/06/03 04:05:23;;;;;;;11.25;5.32;;;;;;;14.48;56.55;101566.00;4988314;28;20140;-73
2021/06/03 04:07:51;;;;;;;8.90;5.38;;;;;;;14.51;56.63;101565.81;4983716;28;20074;-74
2021/06/03 04:10:21;;;;;;;13.45;5.43;;;;;;;14.69;55.73;101566.50;5004401;28;20072;-74
2021/06/03 04:12:50;;;;;;;8.60;5.22;;;;;;;14.74;55.69;101571.53;5008976;28;20039;-76
2021/06/03 04:15:18;;;;;;;8.57;6.05;;;;;;;14.89;55.16;101571.41;4992269;28;20049;-74
2021/06/03 04:17:46;;;;;;;9.45;5.20;;;;;;;15.06;54.98;101577.47;4975251;28;20042;-74
2021/06/03 04:20:18;;;;;;;12.50;6.32;;;;;;;15.20;54.42;101578.31;4976349;28;20049;-75
2021/06/03 04:22:46;;;;;;;10.02;5.75;;;;;;;15.21;54.65;101581.81;4992511;28;20058;-74
2021/06/03 04:25:14;;;;;;;9.65;5.85;;;;;;;15.77;53.16;101579.16;4952502;28;20085;-74
2021/06/03 04:27:41;;;;;;;11.20;5.53;;;;;;;16.85;50.51;101579.78;5003827;28;20452;-75
2021/06/03 04:30:12;;;;;;;8.65;5.75;;;;;;;18.63;45.30;101572.81;4991574;28;20129;-73
2021/06/03 04:32:39;;;;;;;9.20;5.32;;;;;;;19.90;42.32;101585.81;5005375;28;20050;-73
2021/06/03 04:35:07;;;;;;;11.35;5.18;;;;;;;20.65;40.37;101575.00;4968869;28;21089;-73
2021/06/03 04:37:34;;;;;;;9.13;5.03;;;;;;;20.94;39.66;101569.78;4976404;28;20070;-73
2021/06/03 04:40:03;;;;;;;8.82;5.38;;;;;;;21.97;37.62;101582.88;4997521;28;20058;-74
2021/06/03 04:42:30;;;;;;;15.68;6.53;;;;;;;21.93;37.03;101577.91;4964481;28;20054;-75
2021/06/03 04:44:57;;;;;;;11.80;5.32;;;;;;;22.52;35.77;101574.22;5000238;28;20042;-73
2021/06/03 04:47:25;;;;;;;12.73;5.55;;;;;;;22.79;34.99;101567.22;4979085;28;20084;-73
2021/06/03 04:49:52;;;;;;;6.55;4.82;;;;;;;23.39;34.18;101573.03;4968834;28;20054;-76
2021/06/03 04:52:25;;;;;;;8.18;5.35;;;;;;;22.90;34.98;101567.91;4998068;28;20121;-77
2021/06/03 04:54:58;;;;;;;6.00;4.32;;;;;;;23.45;34.64;101578.63;4993337;28;20455;-72
2021/06/03 04:57:26;;;;;;;8.95;5.05;;;;;;;23.81;33.56;101584.06;4977347;28;20133;-73
2021/06/03 04:59:53;;;;;;;6.78;4.53;;;;;;;23.45;34.04;101578.63;4973729;28;20049;-73
2021/06/03 05:02:21;;;;;;;8.13;5.03;;;;;;;23.96;32.87;101581.72;4970714;28;20461;-73
2021/06/03 05:04:49;;;;;;;8.35;4.65;;;;;;;24.62;31.87;101578.50;4977145;28;20068;-75
2021/06/03 05:07:46;;;;;;;17.45;6.18;;;;;;;24.79;31.82;101570.53;4980014;28;20077;-76
2021/06/03 05:10:14;;;;;;;11.73;5.22;;;;;;;25.32;30.52;101572.16;4991357;28;20093;-75
2021/06/03 05:12:42;;;;;;;12.10;5.05;;;;;;;25.39;31.19;101570.47;5010400;28;20096;-75
2021/06/03 05:15:10;;;;;;;11.63;5.95;;;;;;;26.09;29.52;101576.34;4984415;28;20068;-75
2021/06/03 05:17:37;;;;;;;11.55;4.55;;;;;;;27.46;28.16;101575.31;4981524;28;20054;-74
2021/06/03 05:20:07;;;;;;;8.13;4.65;;;;;;;27.85;27.17;101577.97;4973759;28;20048;-78
2021/06/03 05:22:36;;;;;;;9.70;4.65;;;;;;;28.36;26.29;101582.81;4977059;28;20413;-77
2021/06/03 05:25:12;;;;;;;8.90;5.25;;;;;;;28.44;26.36;101580.84;4980922;28;20145;-76
2021/06/03 05:27:40;;;;;;;14.20;4.93;;;;;;;28.69;25.55;101581.44;4992813;28;20068;-75
2021/06/03 05:30:09;;;;;;;7.68;5.15;;;;;;;28.93;25.43;101583.03;4992967;28;20143;-77
2021/06/03 05:32:37;;;;;;;14.73;5.07;;;;;;;29.15;25.67;101581.28;4998815;28;20087;-76
2021/06/03 05:35:06;;;;;;;11.40;4.80;;;;;;;29.76;24.71;101587.19;4984597;28;20038;-77
2021/06/03 05:37:34;;;;;;;8.70;4.45;;;;;;;30.77;23.20;101577.00;5002094;28;20096;-79
2021/06/03 05:40:02;;;;;;;10.52;4.53;;;;;;;30.02;23.73;101580.34;5008803;28;20242;-78
2021/06/03 05:42:30;;;;;;;10.90;5.38;;;;;;;29.48;24.78;101581.66;4965418;28;20050;-76
2021/06/03 05:45:04;;;;;;;9.43;5.25;;;;;;;30.06;24.23;101586.22;4987146;28;20524;-78
2021/06/03 05:47:31;;;;;;;10.30;5.15;;;;;;;29.37;24.14;101581.31;4979213;28;20045;-76
2021/06/03 05:49:59;;;;;;;8.93;5.25;;;;;;;30.05;24.13;101584.56;4967244;28;20058;-77
2021/06/03 05:52:27;;;;;;;11.60;5.78;;;;;;;30.20;23.70;101590.78;4989193;28;20046;-74
2021/06/03 05:54:54;;;;;;;12.38;5.00;;;;;;;30.94;23.06;101596.53;5004233;28;20130;-74
2021/06/03 05:57:22;;;;;;;11.13;5.32;;;;;;;30.87;23.45;101598.38;4992247;28;20512;-73
2021/06/03 05:59:49;;;;;;;8.93;5.32;;;;;;;31.97;22.04;101596.47;4974545;28;20061;-74
2021/06/03 06:02:27;;;;;;;12.77;4.90;;;;;;;31.35;22.13;101603.03;4975228;28;20058;-75
2021/06/03 06:07:40;;;;;;;10.23;4.82;;;;;;;32.02;21.52;101602.16;4996057;28;20151;-73
2021/06/03 06:10:08;;;;;;;12.60;5.28;;;;;;;32.55;21.20;101610.31;4978270;28;20060;-78
2021/06/03 06:12:36;;;;;;;7.65;4.85;;;;;;;31.30;22.37;101610.94;4989551;28;20093;-75
2021/06/03 06:15:06;;;;;;;5.45;4.32;;;;;;;32.21;21.34;101614.09;4973254;28;20129;-77
2021/06/03 06:17:34;;;;;;;7.05;4.97;;;;;;;32.50;20.78;101610.13;4993419;28;20062;-72
2021/06/03 06:20:01;;;;;;;9.07;4.60;;;;;;;33.14;20.57;101617.53;4999629;28;20500;-76
2021/06/03 06:22:29;;;;;;;8.65;4.57;;;;;;;32.72;20.71;101622.47;5008942;28;20930;-75
2021/06/03 06:24:56;;;;;;;11.07;4.78;;;;;;;32.80;20.58;101623.31;4980969;28;20544;-75
2021/06/03 06:27:23;;;;;;;7.95;4.85;;;;;;;31.78;21.84;101620.72;4991072;28;20065;-73
2021/06/03 06:29:50;;;;;;;15.65;5.57;;;;;;;31.48;22.50;101625.69;4995333;28;20935;-77
2021/06/03 06:32:18;;;;;;;9.98;4.63;;;;;;;31.62;22.45;101623.00;4974409;28;20108;-74
2021/06/03 06:34:45;;;;;;;7.82;5.20;;;;;;;30.30;23.58;101637.44;5010360;28;20236;-74
2021/06/03 06:37:12;;;;;;;10.90;5.97;;;;;;;31.90;22.10;101631.06;5013292;28;20065;-76
2021/06/03 06:39:39;;;;;;;12.02;5.97;;;;;;;32.28;20.79;101637.56;4983654;28;20073;-75
2021/06/03 06:42:07;;;;;;;9.85;4.78;;;;;;;32.81;20.76;101639.44;4980104;28;20185;-77
2021/06/03 06:44:34;;;;;;;8.63;4.10;;;;;;;32.73;20.92;101639.66;4994731;28;20054;-74
2021/06/03 06:47:02;;;;;;;14.63;5.85;;;;;;;32.79;20.77;101638.84;4970175;28;20096;-75
2021/06/03 06:49:29;;;;;;;9.18;5.68;;;;;;;32.99;20.56;101644.25;4992332;28;20046;-77
2021/06/03 06:51:57;;;;;;;9.93;4.57;;;;;;;33.75;19.72;101632.63;4992493;28;20481;-74
2021/06/03 06:54:25;;;;;;;8.25;5.55;;;;;;;33.57;20.02;101635.25;4976481;28;20456;-75
2021/06/03 06:56:52;;;;;;;9.20;4.68;;;;;;;33.09;20.35;101641.09;4970736;28;20053;-77
2021/06/03 06:59:19;;;;;;;5.10;3.88;;;;;;;32.97;20.42;101644.50;5006465;28;20536;-75
2021/06/03 07:01:48;;;;;;;8.85;4.45;;;;;;;33.46;20.12;101642.25;5006400;28;20629;-77
2021/06/03 07:04:15;;;;;;;8.07;4.78;;;;;;;33.10;20.64;101649.06;5001127;28;20046;-76
2021/06/03 07:06:43;;;;;;;11.63;5.00;;;;;;;33.73;19.65;101645.66;4983707;28;20046;-74
2021/06/03 07:09:10;;;;;;;10.20;4.97;;;;;;;34.53;18.89;101643.22;4977208;28;20077;-73
2021/06/03 07:11:37;;;;;;;6.15;4.20;;;;;;;36.05;17.27;101637.81;5013581;28;20692;-74
2021/06/03 07:14:13;;;;;;;10.88;4.70;;;;;;;35.92;17.50;101640.72;4983408;28;20042;-75
2021/06/03 07:16:41;;;;;;;8.10;5.07;;;;;;;35.18;18.09;101645.50;4989717;28;20632;-75
2021/06/03 07:19:08;;;;;;;16.80;5.10;;;;;;;36.10;18.01;101637.94;4984990;28;20146;-76
2021/06/03 07:21:35;;;;;;;6.80;4.38;;;;;;;35.39;17.87;101642.28;5007913;28;20054;-75
2021/06/03 07:24:03;;;;;;;9.52;5.45;;;;;;;35.69;17.73;101644.22;4982125;28;20061;-77
2021/06/03 07:26:30;;;;;;;13.90;4.38;;;;;;;36.68;16.66;101642.66;4973002;28;20066;-76
2021/06/03 07:29:03;;;;;;;7.65;4.00;;;;;;;36.43;17.10;101645.66;4983201;28;20316;-75
2021/06/03 07:31:34;;;;;;;10.07;3.83;;;;;;;35.78;17.33;101644.75;4982679;28;20161;-76
2021/06/03 07:34:06;;;;;;;10.80;4.82;;;;;;;32.55;19.93;101640.31;4974147;28;20052;-75
2021/06/03 07:36:33;;;;;;;10.95;4.60;;;;;;;32.09;20.15;101643.84;5007000;28;20046;-75
2021/06/03 07:39:05;;;;;;;9.80;4.30;;;;;;;31.46;21.31;101643.25;4974797;28;20099;-73
2021/06/03 07:41:33;;;;;;;8.05;4.40;;;;;;;32.50;20.29;101645.56;4971078;28;20081;-77
2021/06/03 07:44:01;;;;;;;9.15;3.97;;;;;;;33.91;19.34;101637.56;4979994;28;20065;-76
2021/06/03 07:46:30;;;;;;;5.72;3.65;;;;;;;35.13;18.16;101637.16;5000146;28;20054;-76
2021/06/03 07:48:58;;;;;;;8.77;3.85;;;;;;;34.32;17.91;101640.88;4999699;28;20144;-75
2021/06/03 07:51:25;;;;;;;6.55;4.13;;;;;;;34.29;18.23;101641.31;4979264;28;20050;-78
2021/06/03 07:53:56;;;;;;;9.75;4.10;;;;;;;33.99;18.38;101634.56;4989822;28;20050;-77
2021/06/03 07:56:27;;;;;;;11.52;4.03;;;;;;;33.18;19.01;101646.06;4999735;28;20088;-76
2021/06/03 07:58:55;;;;;;;8.60;4.47;;;;;;;32.61;19.82;101653.13;4979115;28;20132;-77
2021/06/03 08:01:22;;;;;;;5.68;3.55;;;;;;;32.71;20.03;101645.34;4997480;28;20070;-75
2021/06/03 08:03:53;;;;;;;10.48;4.35;;;;;;;32.63;19.92;101647.44;4971791;28;20096;-74
2021/06/03 08:06:20;;;;;;;8.48;3.90;;;;;;;32.03;20.38;101643.84;4976270;28;20165;-74
2021/06/03 08:08:49;;;;;;;7.47;3.88;;;;;;;32.09;20.30;101634.84;4971396;28;20138;-74
2021/06/03 08:11:16;;;;;;;7.40;4.35;;;;;;;31.81;20.12;101638.53;4993881;28;20134;-75
2021/06/03 08:13:43;;;;;;;11.18;4.05;;;;;;;33.94;18.21;101626.19;4980602;28;20054;-76
2021/06/03 08:16:12;;;;;;;8.35;4.18;;;;;;;34.48;17.73;101635.69;4994541;28;20125;-74
2021/06/03 08:18:39;;;;;;;9.25;4.22;;;;;;;34.46;17.53;101628.75;4987572;28;20395;-77
2021/06/03 08:21:08;;;;;;;9.65;3.70;;;;;;;34.30;17.44;101630.13;5008956;28;20173;-74
2021/06/03 08:23:36;;;;;;;16.15;4.18;;;;;;;33.46;18.07;101629.44;4969610;28;20447;-75
2021/06/03 08:26:03;;;;;;;10.27;3.70;;;;;;;34.09;17.94;101625.03;5008545;28;20151;-74
2021/06/03 08:28:34;;;;;;;8.82;3.88;;;;;;;33.03;18.47;101633.75;4995570;28;20179;-76
2021/06/03 08:31:01;;;;;;;11.07;3.38;;;;;;;30.88;21.16;101629.94;4978998;28;20113;-75
2021/06/03 08:33:29;;;;;;;8.13;4.20;;;;;;;29.41;22.55;101642.31;4989702;28;20050;-73
2021/06/03 08:35:56;;;;;;;13.57;3.88;;;;;;;28.55;23.63;101638.31;5004741;28;20112;-73
2021/06/03 08:38:24;;;;;;;10.40;3.60;;;;;;;28.38;23.40;101635.78;4987834;28;20045;-73
2021/06/03 08:40:56;;;;;;;10.55;3.70;;;;;;;27.33;25.01;101621.00;5005320;28;20109;-75
2021/06/03 08:43:26;;;;;;;7.35;3.45;;;;;;;27.14;25.18;101624.97;5001447;28;20069;-72
2021/06/03 08:45:55;;;;;;;11.75;3.25;;;;;;;27.26;25.09;101619.03;4987747;28;20164;-72
2021/06/03 08:48:24;;;;;;;5.63;3.58;;;;;;;27.16;25.57;101625.66;4972286;28;20157;-73
2021/06/03 08:50:54;;;;;;;6.10;3.30;;;;;;;27.00;25.82;101621.13;4947729;28;20062;-72
2021/06/03 08:53:22;;;;;;;8.20;3.30;;;;;;;26.73;26.20;101615.09;4983102;28;20073;-73
2021/06/03 08:58:36;;;;;;;8.32;3.40;;;;;;;26.42;26.94;101622.22;4991951;28;20068;-72
2021/06/03 09:01:04;;;;;;;11.77;3.75;;;;;;;26.39;26.86;101619.88;4966418;28;20080;-74
2021/06/03 09:03:33;;;;;;;11.80;3.65;;;;;;;26.21;27.12;101617.34;5006157;28;20061;-73
2021/06/03 09:06:00;;;;;;;10.27;3.58;;;;;;;25.61;27.26;101618.38;4989301;28;20054;-72
2021/06/03 09:08:37;;;;;;;6.05;2.85;;;;;;;25.44;26.46;101617.53;5009791;28;20052;-73
2021/06/03 09:11:14;;;;;;;7.75;2.85;;;;;;;25.55;26.01;101619.06;5002307;28;20109;-71
2021/06/03 09:13:44;;;;;;;11.60;2.90;;;;;;;25.48;26.17;101616.16;4981711;28;20091;-74
2021/06/03 09:16:13;;;;;;;9.18;3.03;;;;;;;25.33;27.04;101623.19;4967344;28;20313;-72
2021/06/03 09:18:46;;;;;;;6.88;3.38;;;;;;;25.87;26.72;101614.78;4995887;28;20077;-71
2021/06/03 09:21:37;;;;;;;12.20;3.25;;;;;;;26.05;26.39;101618.16;4967442;28;20932;-73
2021/06/03 09:24:12;;;;;;;12.10;3.30;;;;;;;25.77;26.27;101616.78;4963542;28;21003;-77
2021/06/03 09:26:46;;;;;;;5.50;2.95;;;;;;;25.78;26.48;101619.31;4993515;28;20046;-75
2021/06/03 09:29:19;;;;;;;8.45;3.42;;;;;;;25.68;27.22;101621.28;4975856;28;20136;-74
2021/06/03 09:31:53;;;;;;;6.55;2.83;;;;;;;25.84;27.04;101618.63;4990455;28;20034;-75
2021/06/03 09:34:22;;;;;;;7.10;3.13;;;;;;;25.72;27.02;101620.78;4990456;28;20046;-74
2021/06/03 09:36:52;;;;;;;10.80;2.95;;;;;;;25.53;26.66;101623.75;5005644;28;20049;-73
2021/06/03 09:39:36;;;;;;;6.38;3.00;;;;;;;25.37;27.58;101618.31;4960755;28;20042;-73
2021/06/03 09:42:15;;;;;;;12.75;3.30;;;;;;;25.55;26.84;101615.53;4967525;28;20424;-73
2021/06/03 09:45:00;;;;;;;7.55;3.15;;;;;;;26.00;26.22;101609.72;4988457;28;20558;-74
2021/06/03 09:47:38;;;;;;;5.82;2.65;;;;;;;26.19;26.11;101603.16;4973952;28;20073;-72
2021/06/03 09:50:08;;;;;;;7.18;3.05;;;;;;;26.22;26.16;101603.66;4992366;28;20073;-74
2021/06/03 09:52:36;;;;;;;6.68;2.70;;;;;;;26.25;26.13;101597.06;4990242;28;20114;-73
2021/06/03 09:55:10;;;;;;;6.60;3.33;;;;;;;26.17;26.13;101600.63;4992615;28;20591;-73
2021/06/03 09:57:43;;;;;;;6.63;3.45;;;;;;;25.73;26.18;101590.09;5009232;28;20523;-73
2021/06/03 10:00:17;;;;;;;8.13;2.92;;;;;;;25.69;26.09;101591.44;4990003;28;20113;-74
2021/06/03 10:02:45;;;;;;;10.20;3.28;;;;;;;25.54;26.82;101594.97;4960716;28;20045;-73
2021/06/03 10:05:22;;;;;;;5.93;2.92;;;;;;;25.35;26.83;101596.94;4985693;28;20445;-73
2021/06/03 10:08:01;;;;;;;4.72;2.70;;;;;;;25.44;26.89;101600.47;4978829;28;20041;-73
2021/06/03 10:10:33;;;;;;;7.70;2.33;;;;;;;25.58;26.49;101583.69;4968971;28;20124;-72
2021/06/03 10:13:06;;;;;;;8.30;3.20;;;;;;;25.63;26.44;101584.03;4997473;28;20099;-73
2021/06/03 10:15:36;;;;;;;6.95;2.72;;;;;;;25.53;26.40;101591.41;4953716;28;20050;-73
2021/06/03 10:18:05;;;;;;;8.70;2.80;;;;;;;25.73;26.37;101587.41;4994007;28;20049;-73
2021/06/03 10:20:47;;;;;;;6.65;3.90;;;;;;;25.40;26.61;101585.66;4959568;28;20518;-73
2021/06/03 10:23:23;;;;;;;7.50;2.83;;;;;;;25.67;26.70;101582.69;4993684;28;20080;-72
2021/06/03 10:26:01;;;;;;;6.90;2.70;;;;;;;25.60;26.51;101587.03;4972496;28;20053;-72
2021/06/03 10:28:29;;;;;;;5.15;2.40;;;;;;;25.59;26.11;101588.06;4970692;28;20053;-74
2021/06/03 10:31:05;;;;;;;6.32;3.28;;;;;;;25.51;26.75;101590.72;4983395;28;20041;-73
2021/06/03 10:33:35;;;;;;;8.70;2.70;;;;;;;25.43;25.91;101585.31;4978347;28;20101;-76
2021/06/03 10:36:05;;;;;;;5.88;2.63;;;;;;;25.58;26.36;101577.41;4974459;28;20081;-72
2021/06/03 10:38:33;;;;;;;6.63;2.50;;;;;;;25.72;26.71;101580.34;5007522;28;20042;-73
2021/06/03 10:41:06;;;;;;;6.60;2.90;;;;;;;25.59;25.41;101571.88;4975184;28;20069;-74
2021/06/03 10:43:36;;;;;;;5.10;2.58;;;;;;;25.78;26.01;101580.72;5007118;28;20057;-75
2021/06/03 10:46:06;;;;;;;6.60;2.65;;;;;;;25.81;26.10;101575.00;4965964;28;20461;-75
2021/06/03 10:48:33;;;;;;;6.40;3.17;;;;;;;25.88;26.42;101578.69;5018133;28;20083;-76
2021/06/03 10:51:05;;;;;;;9.50;2.75;;;;;;;25.80;25.99;101565.19;4971779;28;20189;-75
2021/06/03 10:53:32;;;;;;;4.90;2.47;;;;;;;25.92;25.81;101563.84;4988945;28;21204;-75
2021/06/03 10:56:09;;;;;;;4.38;2.40;;;;;;;26.06;25.85;101565.88;5001373;28;20069;-74
2021/06/03 10:58:39;;;;;;;4.88;2.60;;;;;;;25.98;25.04;101557.78;4994770;28;20090;-78
2021/06/03 11:01:17;;;;;;;5.60;2.83;;;;;;;25.91;25.81;101567.56;5004251;28;20069;-75
2021/06/03 11:03:49;;;;;;;5.35;2.70;;;;;;;26.07;25.45;101569.41;5019488;28;20140;-78
2021/06/03 11:06:19;;;;;;;4.25;2.83;;;;;;;26.04;25.37;101570.59;5012315;28;20187;-75
2021/06/03 11:09:06;;;;;;;4.22;2.35;;;;;;;26.08;24.80;101563.03;4980564;28;20054;-73
2021/06/03 11:11:37;;;;;;;7.03;2.53;;;;;;;26.13;25.03;101557.97;4991475;28;20050;-74
2021/06/03 11:14:16;;;;;;;5.45;2.47;;;;;;;26.12;25.14;101558.97;4989951;28;20057;-74
2021/06/03 11:16:49;;;;;;;7.15;2.97;;;;;;;25.92;25.56;101569.25;4995963;28;20548;-75
2021/06/03 11:19:19;;;;;;;4.25;2.88;;;;;;;25.86;25.53;101557.28;4958604;28;20516;-75
2021/06/03 11:21:47;;;;;;;8.43;2.25;;;;;;;25.93;25.39;101552.88;5017276;28;20120;-74
2021/06/03 11:24:14;;;;;;;8.88;2.85;;;;;;;26.14;24.93;101551.53;5016463;28;20064;-75
2021/06/03 11:26:45;;;;;;;8.07;2.78;;;;;;;26.25;25.25;101549.34;5003260;28;20478;-74
2021/06/03 11:29:30;;;;;;;2.78;2.42;;;;;;;26.39;25.04;101546.97;5013188;28;20070;-72
2021/06/03 11:32:00;;;;;;;3.88;2.40;;;;;;;26.11;25.13;101552.72;4958056;28;20121;-75
2021/06/03 11:34:44;;;;;;;5.43;2.45;;;;;;;25.79;25.39;101555.41;5022076;28;20080;-72
2021/06/03 11:37:23;;;;;;;5.43;2.88;;;;;;;25.89;25.71;101559.66;5014770;28;20101;-72